sensor_id;sensor_type;location;lat;lon;timestamp;P1;durP1;ratioP1;P2;durP2;ratioP2
18048;SDS011;9149;47.002;8.604;2023-12-20T00:01:15;19.60;;;9.50;;
18048;SDS011;9149;47.002;8.604;2023-12-20T00:03:43;18.70;;;9.10;;
18048;SDS011;9149;47.002;8.604;2023-12-20T00:06:11;21.53;;;10.00;;
18048;SDS011;9149;47.002;8.604;2023-12-20T00:08:40;18.13;;;9.60;;
18048;SDS011;9149;47.002;8.604;2023-12-20T00:11:07;19.83;;;9.50;;
18048;SDS011;9149;47.002;8.604;2023-12-20T00:13:35;20.53;;;9.70;;
18048;SDS011;9149;47.002;8.604;2023-12-20T00:16:03;22.87;;;9.93;;
18048;SDS011;9149;47.002;8.604;2023-12-20T00:18:31;24.10;;;9.17;;
18048;SDS011;9149;47.002;8.604;2023-12-20T00:20:58;18.53;;;9.03;;
18048;SDS011;9149;47.002;8.604;2023-12-20T00:23:26;18.57;;;9.40;;
18048;SDS011;9149;47.002;8.604;2023-12-20T00:25:55;22.50;;;10.30;;
18048;SDS011;9149;47.002;8.604;2023-12-20T00:28:23;24.27;;;10.20;;
18048;SDS011;9149;47.002;8.604;2023-12-20T00:30:51;18.30;;;9.43;;
18048;SDS011;9149;47.002;8.604;2023-12-20T00:33:18;18.37;;;9.37;;
18048;SDS011;9149;47.002;8.604;2023-12-20T00:35:46;18.87;;;9.20;;
18048;SDS011;9149;47.002;8.604;2023-12-20T00:38:14;18.90;;;9.27;;
18048;SDS011;9149;47.002;8.604;2023-12-20T00:40:42;19.20;;;9.17;;
18048;SDS011;9149;47.002;8.604;2023-12-20T00:43:11;21.33;;;9.73;;
18048;SDS011;9149;47.002;8.604;2023-12-20T00:45:39;18.33;;;8.87;;
18048;SDS011;9149;47.002;8.604;2023-12-20T00:48:07;18.80;;;9.13;;
18048;SDS011;9149;47.002;8.604;2023-12-20T00:50:35;18.07;;;8.97;;
18048;SDS011;9149;47.002;8.604;2023-12-20T00:53:02;19.77;;;8.83;;
18048;SDS011;9149;47.002;8.604;2023-12-20T00:55:30;18.70;;;9.17;;
18048;SDS011;9149;47.002;8.604;2023-12-20T00:57:58;18.73;;;9.03;;
18048;SDS011;9149;47.002;8.604;2023-12-20T01:00:28;18.13;;;9.00;;
18048;SDS011;9149;47.002;8.604;2023-12-20T01:02:55;22.13;;;9.83;;
18048;SDS011;9149;47.002;8.604;2023-12-20T01:05:23;18.80;;;9.63;;
18048;SDS011;9149;47.002;8.604;2023-12-20T01:07:51;18.77;;;8.97;;
18048;SDS011;9149;47.002;8.604;2023-12-20T01:10:19;17.17;;;9.10;;
18048;SDS011;9149;47.002;8.604;2023-12-20T01:12:47;19.27;;;9.53;;
18048;SDS011;9149;47.002;8.604;2023-12-20T01:15:15;20.20;;;9.50;;
18048;SDS011;9149;47.002;8.604;2023-12-20T01:17:44;19.13;;;9.97;;
18048;SDS011;9149;47.002;8.604;2023-12-20T01:20:13;17.37;;;8.70;;
18048;SDS011;9149;47.002;8.604;2023-12-20T01:22:41;15.70;;;8.40;;
18048;SDS011;9149;47.002;8.604;2023-12-20T01:25:09;18.07;;;8.43;;
18048;SDS011;9149;47.002;8.604;2023-12-20T01:27:37;15.83;;;8.13;;
18048;SDS011;9149;47.002;8.604;2023-12-20T01:30:04;18.47;;;8.40;;
18048;SDS011;9149;47.002;8.604;2023-12-20T01:32:32;17.33;;;8.37;;
18048;SDS011;9149;47.002;8.604;2023-12-20T01:35:01;17.77;;;8.40;;
18048;SDS011;9149;47.002;8.604;2023-12-20T01:37:29;17.40;;;8.53;;
18048;SDS011;9149;47.002;8.604;2023-12-20T01:39:57;15.23;;;7.83;;
18048;SDS011;9149;47.002;8.604;2023-12-20T01:42:25;16.10;;;7.07;;
18048;SDS011;9149;47.002;8.604;2023-12-20T01:44:53;18.10;;;8.93;;
18048;SDS011;9149;47.002;8.604;2023-12-20T01:47:20;16.33;;;8.17;;
18048;SDS011;9149;47.002;8.604;2023-12-20T01:49:48;15.00;;;7.77;;
18048;SDS011;9149;47.002;8.604;2023-12-20T01:52:18;17.50;;;7.70;;
18048;SDS011;9149;47.002;8.604;2023-12-20T01:54:46;13.47;;;7.40;;
18048;SDS011;9149;47.002;8.604;2023-12-20T01:57:15;11.83;;;7.30;;
18048;SDS011;9149;47.002;8.604;2023-12-20T01:59:43;17.87;;;8.07;;
18048;SDS011;9149;47.002;8.604;2023-12-20T02:02:11;17.63;;;8.37;;
18048;SDS011;9149;47.002;8.604;2023-12-20T02:04:39;15.97;;;8.17;;
18048;SDS011;9149;47.002;8.604;2023-12-20T02:07:07;15.43;;;7.90;;
18048;SDS011;9149;47.002;8.604;2023-12-20T02:09:37;16.43;;;8.13;;
18048;SDS011;9149;47.002;8.604;2023-12-20T02:12:05;17.40;;;8.50;;
18048;SDS011;9149;47.002;8.604;2023-12-20T02:14:32;18.40;;;8.03;;
18048;SDS011;9149;47.002;8.604;2023-12-20T02:17:00;19.10;;;7.97;;
18048;SDS011;9149;47.002;8.604;2023-12-20T02:19:27;16.83;;;7.90;;
18048;SDS011;9149;47.002;8.604;2023-12-20T02:22:05;13.10;;;7.43;;
18048;SDS011;9149;47.002;8.604;2023-12-20T02:24:33;14.27;;;6.73;;
18048;SDS011;9149;47.002;8.604;2023-12-20T02:27:01;23.83;;;7.80;;
18048;SDS011;9149;47.002;8.604;2023-12-20T02:29:28;12.20;;;6.50;;
18048;SDS011;9149;47.002;8.604;2023-12-20T02:31:56;11.33;;;6.03;;
18048;SDS011;9149;47.002;8.604;2023-12-20T02:34:24;14.00;;;6.83;;
18048;SDS011;9149;47.002;8.604;2023-12-20T02:36:51;12.47;;;6.70;;
18048;SDS011;9149;47.002;8.604;2023-12-20T02:39:21;10.80;;;6.00;;
18048;SDS011;9149;47.002;8.604;2023-12-20T02:41:49;12.40;;;5.90;;
18048;SDS011;9149;47.002;8.604;2023-12-20T02:44:17;9.70;;;5.70;;
18048;SDS011;9149;47.002;8.604;2023-12-20T02:46:44;10.77;;;5.53;;
18048;SDS011;9149;47.002;8.604;2023-12-20T02:49:12;12.00;;;5.57;;
18048;SDS011;9149;47.002;8.604;2023-12-20T02:51:40;9.57;;;5.07;;
18048;SDS011;9149;47.002;8.604;2023-12-20T02:54:07;10.13;;;5.63;;
18048;SDS011;9149;47.002;8.604;2023-12-20T02:56:36;6.63;;;4.23;;
18048;SDS011;9149;47.002;8.604;2023-12-20T02:59:04;8.70;;;4.50;;
18048;SDS011;9149;47.002;8.604;2023-12-20T03:01:32;6.23;;;4.10;;
18048;SDS011;9149;47.002;8.604;2023-12-20T03:04:00;11.57;;;5.10;;
18048;SDS011;9149;47.002;8.604;2023-12-20T03:06:27;7.80;;;4.50;;
18048;SDS011;9149;47.002;8.604;2023-12-20T03:08:55;8.67;;;4.30;;
18048;SDS011;9149;47.002;8.604;2023-12-20T03:11:26;8.30;;;4.30;;
18048;SDS011;9149;47.002;8.604;2023-12-20T03:13:55;8.63;;;4.60;;
18048;SDS011;9149;47.002;8.604;2023-12-20T03:16:23;7.53;;;4.57;;
18048;SDS011;9149;47.002;8.604;2023-12-20T03:19:08;11.53;;;5.43;;
18048;SDS011;9149;47.002;8.604;2023-12-20T03:21:36;9.33;;;5.20;;
18048;SDS011;9149;47.002;8.604;2023-12-20T03:24:04;13.03;;;6.00;;
18048;SDS011;9149;47.002;8.604;2023-12-20T03:26:31;11.03;;;6.50;;
18048;SDS011;9149;47.002;8.604;2023-12-20T03:29:00;12.30;;;6.40;;
18048;SDS011;9149;47.002;8.604;2023-12-20T03:31:28;12.40;;;7.03;;
18048;SDS011;9149;47.002;8.604;2023-12-20T03:33:55;14.27;;;7.03;;
18048;SDS011;9149;47.002;8.604;2023-12-20T03:36:23;12.40;;;6.90;;
18048;SDS011;9149;47.002;8.604;2023-12-20T03:38:51;12.23;;;6.80;;
18048;SDS011;9149;47.002;8.604;2023-12-20T03:41:18;11.10;;;6.87;;
18048;SDS011;9149;47.002;8.604;2023-12-20T03:43:46;14.00;;;6.70;;
18048;SDS011;9149;47.002;8.604;2023-12-20T03:46:15;13.70;;;6.70;;
18048;SDS011;9149;47.002;8.604;2023-12-20T03:48:43;14.90;;;6.80;;
18048;SDS011;9149;47.002;8.604;2023-12-20T03:51:10;12.03;;;6.77;;
18048;SDS011;9149;47.002;8.604;2023-12-20T03:53:38;11.60;;;6.80;;
18048;SDS011;9149;47.002;8.604;2023-12-20T03:56:07;13.43;;;6.87;;
18048;SDS011;9149;47.002;8.604;2023-12-20T03:58:34;10.57;;;6.40;;
18048;SDS011;9149;47.002;8.604;2023-12-20T04:01:02;12.03;;;6.73;;
18048;SDS011;9149;47.002;8.604;2023-12-20T04:03:31;11.57;;;6.40;;
18048;SDS011;9149;47.002;8.604;2023-12-20T04:05:59;12.53;;;7.10;;
18048;SDS011;9149;47.002;8.604;2023-12-20T04:08:27;12.20;;;6.83;;
18048;SDS011;9149;47.002;8.604;2023-12-20T04:10:54;17.33;;;6.90;;
18048;SDS011;9149;47.002;8.604;2023-12-20T04:13:22;14.20;;;6.87;;
18048;SDS011;9149;47.002;8.604;2023-12-20T04:15:50;10.60;;;5.93;;
18048;SDS011;9149;47.002;8.604;2023-12-20T04:18:18;14.37;;;7.03;;
18048;SDS011;9149;47.002;8.604;2023-12-20T04:20:47;11.50;;;6.67;;
18048;SDS011;9149;47.002;8.604;2023-12-20T04:23:15;11.83;;;6.40;;
18048;SDS011;9149;47.002;8.604;2023-12-20T04:25:43;14.67;;;6.77;;
18048;SDS011;9149;47.002;8.604;2023-12-20T04:28:11;18.27;;;7.10;;
18048;SDS011;9149;47.002;8.604;2023-12-20T04:30:38;12.23;;;6.60;;
18048;SDS011;9149;47.002;8.604;2023-12-20T04:33:06;11.47;;;6.50;;
18048;SDS011;9149;47.002;8.604;2023-12-20T04:35:34;12.83;;;7.13;;
18048;SDS011;9149;47.002;8.604;2023-12-20T04:38:02;11.60;;;6.50;;
18048;SDS011;9149;47.002;8.604;2023-12-20T04:40:30;13.37;;;6.50;;
18048;SDS011;9149;47.002;8.604;2023-12-20T04:42:57;13.70;;;6.97;;
18048;SDS011;9149;47.002;8.604;2023-12-20T04:45:25;13.53;;;5.73;;
18048;SDS011;9149;47.002;8.604;2023-12-20T04:47:53;13.50;;;6.87;;
18048;SDS011;9149;47.002;8.604;2023-12-20T04:50:20;9.80;;;6.37;;
18048;SDS011;9149;47.002;8.604;2023-12-20T04:52:49;13.60;;;6.27;;
18048;SDS011;9149;47.002;8.604;2023-12-20T04:55:18;10.00;;;5.63;;
18048;SDS011;9149;47.002;8.604;2023-12-20T04:57:46;10.83;;;6.10;;
18048;SDS011;9149;47.002;8.604;2023-12-20T05:00:14;14.50;;;6.43;;
18048;SDS011;9149;47.002;8.604;2023-12-20T05:02:42;15.47;;;6.67;;
18048;SDS011;9149;47.002;8.604;2023-12-20T05:05:10;12.97;;;6.20;;
18048;SDS011;9149;47.002;8.604;2023-12-20T05:07:38;11.77;;;6.10;;
18048;SDS011;9149;47.002;8.604;2023-12-20T05:10:06;13.87;;;6.33;;
18048;SDS011;9149;47.002;8.604;2023-12-20T05:12:36;17.53;;;6.90;;
18048;SDS011;9149;47.002;8.604;2023-12-20T05:15:04;11.90;;;6.50;;
18048;SDS011;9149;47.002;8.604;2023-12-20T05:17:32;12.87;;;5.70;;
18048;SDS011;9149;47.002;8.604;2023-12-20T05:20:00;15.87;;;6.27;;
18048;SDS011;9149;47.002;8.604;2023-12-20T05:22:28;12.97;;;6.77;;
18048;SDS011;9149;47.002;8.604;2023-12-20T05:24:55;10.53;;;6.30;;
18048;SDS011;9149;47.002;8.604;2023-12-20T05:27:23;13.33;;;6.37;;
18048;SDS011;9149;47.002;8.604;2023-12-20T05:29:52;12.43;;;7.30;;
18048;SDS011;9149;47.002;8.604;2023-12-20T05:32:23;12.57;;;6.87;;
18048;SDS011;9149;47.002;8.604;2023-12-20T05:34:51;21.93;;;7.60;;
18048;SDS011;9149;47.002;8.604;2023-12-20T05:37:19;12.93;;;7.57;;
18048;SDS011;9149;47.002;8.604;2023-12-20T05:39:47;14.30;;;7.57;;
18048;SDS011;9149;47.002;8.604;2023-12-20T05:42:14;14.57;;;7.50;;
18048;SDS011;9149;47.002;8.604;2023-12-20T05:44:42;16.77;;;7.00;;
18048;SDS011;9149;47.002;8.604;2023-12-20T05:47:11;12.97;;;7.13;;
18048;SDS011;9149;47.002;8.604;2023-12-20T05:49:38;15.60;;;7.70;;
18048;SDS011;9149;47.002;8.604;2023-12-20T05:52:06;17.30;;;7.47;;
18048;SDS011;9149;47.002;8.604;2023-12-20T05:54:34;15.63;;;6.27;;
18048;SDS011;9149;47.002;8.604;2023-12-20T05:57:02;11.67;;;6.53;;
18048;SDS011;9149;47.002;8.604;2023-12-20T05:59:29;13.37;;;6.80;;
18048;SDS011;9149;47.002;8.604;2023-12-20T06:01:57;14.13;;;7.07;;
18048;SDS011;9149;47.002;8.604;2023-12-20T06:04:26;13.13;;;6.63;;
18048;SDS011;9149;47.002;8.604;2023-12-20T06:06:53;10.80;;;5.57;;
18048;SDS011;9149;47.002;8.604;2023-12-20T06:09:21;9.53;;;5.13;;
18048;SDS011;9149;47.002;8.604;2023-12-20T06:11:49;11.97;;;5.33;;
18048;SDS011;9149;47.002;8.604;2023-12-20T06:14:17;8.80;;;5.23;;
18048;SDS011;9149;47.002;8.604;2023-12-20T06:16:45;9.57;;;4.67;;
18048;SDS011;9149;47.002;8.604;2023-12-20T06:19:13;8.80;;;4.47;;
18048;SDS011;9149;47.002;8.604;2023-12-20T06:21:42;7.93;;;4.40;;
18048;SDS011;9149;47.002;8.604;2023-12-20T06:24:11;7.60;;;4.20;;
18048;SDS011;9149;47.002;8.604;2023-12-20T06:26:38;6.97;;;4.00;;
18048;SDS011;9149;47.002;8.604;2023-12-20T06:29:06;6.40;;;3.40;;
18048;SDS011;9149;47.002;8.604;2023-12-20T06:31:33;7.70;;;3.33;;
18048;SDS011;9149;47.002;8.604;2023-12-20T06:34:01;4.87;;;3.27;;
18048;SDS011;9149;47.002;8.604;2023-12-20T06:36:29;7.83;;;4.10;;
18048;SDS011;9149;47.002;8.604;2023-12-20T06:38:58;7.77;;;4.00;;
18048;SDS011;9149;47.002;8.604;2023-12-20T06:41:26;6.70;;;3.90;;
18048;SDS011;9149;47.002;8.604;2023-12-20T06:43:53;8.07;;;4.00;;
18048;SDS011;9149;47.002;8.604;2023-12-20T06:46:21;8.73;;;4.63;;
18048;SDS011;9149;47.002;8.604;2023-12-20T06:48:49;9.53;;;4.67;;
18048;SDS011;9149;47.002;8.604;2023-12-20T06:51:17;11.07;;;5.03;;
18048;SDS011;9149;47.002;8.604;2023-12-20T06:53:46;11.27;;;5.57;;
18048;SDS011;9149;47.002;8.604;2023-12-20T06:56:15;9.23;;;4.97;;
18048;SDS011;9149;47.002;8.604;2023-12-20T06:58:45;9.80;;;5.53;;
18048;SDS011;9149;47.002;8.604;2023-12-20T07:01:13;9.10;;;5.27;;
18048;SDS011;9149;47.002;8.604;2023-12-20T07:03:41;10.50;;;5.43;;
18048;SDS011;9149;47.002;8.604;2023-12-20T07:06:09;9.67;;;5.10;;
18048;SDS011;9149;47.002;8.604;2023-12-20T07:08:37;11.17;;;5.80;;
18048;SDS011;9149;47.002;8.604;2023-12-20T07:11:04;8.90;;;4.93;;
18048;SDS011;9149;47.002;8.604;2023-12-20T07:13:52;9.40;;;5.73;;
18048;SDS011;9149;47.002;8.604;2023-12-20T07:16:20;9.87;;;5.27;;
18048;SDS011;9149;47.002;8.604;2023-12-20T07:18:49;14.33;;;5.00;;
18048;SDS011;9149;47.002;8.604;2023-12-20T07:21:17;11.10;;;5.50;;
18048;SDS011;9149;47.002;8.604;2023-12-20T07:23:45;10.13;;;5.53;;
18048;SDS011;9149;47.002;8.604;2023-12-20T07:26:12;9.60;;;5.40;;
18048;SDS011;9149;47.002;8.604;2023-12-20T07:28:40;9.00;;;5.07;;
18048;SDS011;9149;47.002;8.604;2023-12-20T07:31:09;10.40;;;5.47;;
18048;SDS011;9149;47.002;8.604;2023-12-20T07:33:37;7.63;;;4.60;;
18048;SDS011;9149;47.002;8.604;2023-12-20T07:36:06;8.53;;;5.03;;
18048;SDS011;9149;47.002;8.604;2023-12-20T07:38:33;8.30;;;4.80;;
18048;SDS011;9149;47.002;8.604;2023-12-20T07:41:01;10.07;;;5.67;;
18048;SDS011;9149;47.002;8.604;2023-12-20T07:43:29;12.27;;;5.47;;
18048;SDS011;9149;47.002;8.604;2023-12-20T07:45:56;8.63;;;5.10;;
18048;SDS011;9149;47.002;8.604;2023-12-20T07:48:25;9.93;;;4.93;;
18048;SDS011;9149;47.002;8.604;2023-12-20T07:50:53;9.90;;;4.63;;
18048;SDS011;9149;47.002;8.604;2023-12-20T07:53:21;9.57;;;5.20;;
18048;SDS011;9149;47.002;8.604;2023-12-20T07:55:49;8.33;;;5.27;;
18048;SDS011;9149;47.002;8.604;2023-12-20T07:58:18;11.03;;;5.30;;
18048;SDS011;9149;47.002;8.604;2023-12-20T08:00:46;9.03;;;5.80;;
18048;SDS011;9149;47.002;8.604;2023-12-20T08:03:14;10.53;;;5.50;;
18048;SDS011;9149;47.002;8.604;2023-12-20T08:05:44;9.83;;;4.93;;
18048;SDS011;9149;47.002;8.604;2023-12-20T08:08:11;8.43;;;5.07;;
18048;SDS011;9149;47.002;8.604;2023-12-20T08:10:39;11.10;;;5.57;;
18048;SDS011;9149;47.002;8.604;2023-12-20T08:13:06;7.80;;;4.87;;
18048;SDS011;9149;47.002;8.604;2023-12-20T08:15:35;8.10;;;5.27;;
18048;SDS011;9149;47.002;8.604;2023-12-20T08:18:04;12.77;;;7.03;;
18048;SDS011;9149;47.002;8.604;2023-12-20T08:20:31;13.33;;;6.90;;
18048;SDS011;9149;47.002;8.604;2023-12-20T08:23:07;10.83;;;5.83;;
18048;SDS011;9149;47.002;8.604;2023-12-20T08:25:35;7.83;;;3.87;;
18048;SDS011;9149;47.002;8.604;2023-12-20T08:28:03;6.20;;;3.50;;
18048;SDS011;9149;47.002;8.604;2023-12-20T08:30:31;4.17;;;2.63;;
18048;SDS011;9149;47.002;8.604;2023-12-20T08:32:59;5.93;;;3.70;;
18048;SDS011;9149;47.002;8.604;2023-12-20T08:35:27;7.80;;;3.40;;
18048;SDS011;9149;47.002;8.604;2023-12-20T08:37:55;7.57;;;4.30;;
18048;SDS011;9149;47.002;8.604;2023-12-20T08:40:23;7.60;;;3.97;;
18048;SDS011;9149;47.002;8.604;2023-12-20T08:42:51;6.33;;;4.30;;
18048;SDS011;9149;47.002;8.604;2023-12-20T08:45:19;6.80;;;4.27;;
18048;SDS011;9149;47.002;8.604;2023-12-20T08:47:46;7.23;;;4.37;;
18048;SDS011;9149;47.002;8.604;2023-12-20T08:50:15;9.13;;;4.53;;
18048;SDS011;9149;47.002;8.604;2023-12-20T08:52:43;7.43;;;4.20;;
18048;SDS011;9149;47.002;8.604;2023-12-20T08:55:10;9.27;;;4.93;;
18048;SDS011;9149;47.002;8.604;2023-12-20T08:57:40;8.87;;;5.20;;
18048;SDS011;9149;47.002;8.604;2023-12-20T09:00:08;7.70;;;4.63;;
18048;SDS011;9149;47.002;8.604;2023-12-20T09:02:36;9.33;;;5.37;;
18048;SDS011;9149;47.002;8.604;2023-12-20T09:05:04;9.77;;;4.80;;
18048;SDS011;9149;47.002;8.604;2023-12-20T09:07:32;8.67;;;4.97;;
18048;SDS011;9149;47.002;8.604;2023-12-20T09:10:00;8.47;;;4.77;;
18048;SDS011;9149;47.002;8.604;2023-12-20T09:12:27;6.60;;;4.10;;
18048;SDS011;9149;47.002;8.604;2023-12-20T09:14:56;8.07;;;4.83;;
18048;SDS011;9149;47.002;8.604;2023-12-20T09:17:24;7.17;;;4.47;;
18048;SDS011;9149;47.002;8.604;2023-12-20T09:19:52;5.97;;;4.03;;
18048;SDS011;9149;47.002;8.604;2023-12-20T09:22:20;8.80;;;4.47;;
18048;SDS011;9149;47.002;8.604;2023-12-20T09:24:48;7.57;;;4.00;;
18048;SDS011;9149;47.002;8.604;2023-12-20T09:27:16;11.33;;;4.37;;
18048;SDS011;9149;47.002;8.604;2023-12-20T09:29:44;12.37;;;4.50;;
18048;SDS011;9149;47.002;8.604;2023-12-20T09:32:12;7.07;;;3.87;;
18048;SDS011;9149;47.002;8.604;2023-12-20T09:34:40;5.80;;;3.90;;
18048;SDS011;9149;47.002;8.604;2023-12-20T09:37:08;5.30;;;3.73;;
18048;SDS011;9149;47.002;8.604;2023-12-20T09:39:36;8.87;;;4.77;;
18048;SDS011;9149;47.002;8.604;2023-12-20T09:42:05;5.90;;;3.93;;
18048;SDS011;9149;47.002;8.604;2023-12-20T09:44:33;7.63;;;4.40;;
18048;SDS011;9149;47.002;8.604;2023-12-20T09:47:02;6.30;;;4.30;;
18048;SDS011;9149;47.002;8.604;2023-12-20T09:49:32;8.70;;;4.33;;
18048;SDS011;9149;47.002;8.604;2023-12-20T09:52:00;9.13;;;4.57;;
18048;SDS011;9149;47.002;8.604;2023-12-20T09:54:28;9.60;;;5.33;;
18048;SDS011;9149;47.002;8.604;2023-12-20T09:56:57;10.60;;;5.20;;
18048;SDS011;9149;47.002;8.604;2023-12-20T09:59:24;11.30;;;4.97;;
18048;SDS011;9149;47.002;8.604;2023-12-20T10:01:52;9.33;;;5.17;;
18048;SDS011;9149;47.002;8.604;2023-12-20T10:04:24;16.67;;;5.60;;
18048;SDS011;9149;47.002;8.604;2023-12-20T10:07:01;7.20;;;4.90;;
18048;SDS011;9149;47.002;8.604;2023-12-20T10:09:32;9.10;;;5.07;;
18048;SDS011;9149;47.002;8.604;2023-12-20T10:12:01;10.23;;;5.80;;
18048;SDS011;9149;47.002;8.604;2023-12-20T10:14:28;10.00;;;5.00;;
18048;SDS011;9149;47.002;8.604;2023-12-20T10:17:01;9.57;;;5.13;;
18048;SDS011;9149;47.002;8.604;2023-12-20T10:19:29;7.40;;;4.70;;
18048;SDS011;9149;47.002;8.604;2023-12-20T10:21:59;7.93;;;4.67;;
18048;SDS011;9149;47.002;8.604;2023-12-20T10:24:28;8.37;;;5.33;;
18048;SDS011;9149;47.002;8.604;2023-12-20T10:27:01;8.57;;;4.50;;
18048;SDS011;9149;47.002;8.604;2023-12-20T10:29:32;8.60;;;5.43;;
18048;SDS011;9149;47.002;8.604;2023-12-20T10:32:10;11.27;;;5.70;;
18048;SDS011;9149;47.002;8.604;2023-12-20T10:34:48;10.47;;;5.63;;
18048;SDS011;9149;47.002;8.604;2023-12-20T10:37:17;11.23;;;5.77;;
18048;SDS011;9149;47.002;8.604;2023-12-20T10:39:46;10.97;;;6.47;;
18048;SDS011;9149;47.002;8.604;2023-12-20T10:42:15;10.87;;;6.23;;
18048;SDS011;9149;47.002;8.604;2023-12-20T10:44:43;11.33;;;6.43;;
18048;SDS011;9149;47.002;8.604;2023-12-20T10:47:11;12.93;;;6.40;;
18048;SDS011;9149;47.002;8.604;2023-12-20T10:49:39;10.17;;;5.63;;
18048;SDS011;9149;47.002;8.604;2023-12-20T10:52:07;13.50;;;6.13;;
18048;SDS011;9149;47.002;8.604;2023-12-20T10:54:37;14.47;;;6.40;;
18048;SDS011;9149;47.002;8.604;2023-12-20T10:57:05;14.73;;;6.10;;
18048;SDS011;9149;47.002;8.604;2023-12-20T10:59:33;15.50;;;6.67;;
18048;SDS011;9149;47.002;8.604;2023-12-20T11:02:03;16.57;;;6.33;;
18048;SDS011;9149;47.002;8.604;2023-12-20T11:04:36;10.50;;;5.53;;
18048;SDS011;9149;47.002;8.604;2023-12-20T11:07:07;9.07;;;4.80;;
18048;SDS011;9149;47.002;8.604;2023-12-20T11:09:38;11.47;;;4.70;;
18048;SDS011;9149;47.002;8.604;2023-12-20T11:12:09;7.43;;;4.63;;
18048;SDS011;9149;47.002;8.604;2023-12-20T11:14:39;8.57;;;4.77;;
18048;SDS011;9149;47.002;8.604;2023-12-20T11:17:09;8.23;;;4.87;;
18048;SDS011;9149;47.002;8.604;2023-12-20T11:19:38;8.90;;;4.33;;
18048;SDS011;9149;47.002;8.604;2023-12-20T11:22:11;8.60;;;4.43;;
18048;SDS011;9149;47.002;8.604;2023-12-20T11:24:40;8.23;;;5.20;;
18048;SDS011;9149;47.002;8.604;2023-12-20T11:27:12;8.67;;;4.83;;
18048;SDS011;9149;47.002;8.604;2023-12-20T11:29:40;13.97;;;5.10;;
18048;SDS011;9149;47.002;8.604;2023-12-20T11:34:51;7.27;;;4.83;;
18048;SDS011;9149;47.002;8.604;2023-12-20T11:37:20;12.80;;;5.07;;
18048;SDS011;9149;47.002;8.604;2023-12-20T11:39:54;11.53;;;5.23;;
18048;SDS011;9149;47.002;8.604;2023-12-20T11:42:22;8.87;;;4.90;;
18048;SDS011;9149;47.002;8.604;2023-12-20T11:44:50;10.40;;;5.50;;
18048;SDS011;9149;47.002;8.604;2023-12-20T11:47:18;8.20;;;5.10;;
18048;SDS011;9149;47.002;8.604;2023-12-20T11:49:47;12.40;;;5.50;;
18048;SDS011;9149;47.002;8.604;2023-12-20T11:52:16;9.43;;;5.30;;
18048;SDS011;9149;47.002;8.604;2023-12-20T11:55:03;11.50;;;5.47;;
18048;SDS011;9149;47.002;8.604;2023-12-20T11:57:31;10.30;;;5.00;;
18048;SDS011;9149;47.002;8.604;2023-12-20T11:59:59;7.80;;;4.20;;
18048;SDS011;9149;47.002;8.604;2023-12-20T12:02:37;8.23;;;4.60;;
18048;SDS011;9149;47.002;8.604;2023-12-20T12:05:05;8.80;;;4.50;;
18048;SDS011;9149;47.002;8.604;2023-12-20T12:07:34;9.80;;;5.13;;
18048;SDS011;9149;47.002;8.604;2023-12-20T12:10:03;12.67;;;5.03;;
18048;SDS011;9149;47.002;8.604;2023-12-20T12:12:31;10.90;;;5.03;;
18048;SDS011;9149;47.002;8.604;2023-12-20T12:14:59;10.00;;;5.33;;
18048;SDS011;9149;47.002;8.604;2023-12-20T12:17:27;9.17;;;5.27;;
18048;SDS011;9149;47.002;8.604;2023-12-20T12:20:01;9.20;;;5.47;;
18048;SDS011;9149;47.002;8.604;2023-12-20T12:22:29;10.70;;;5.80;;
18048;SDS011;9149;47.002;8.604;2023-12-20T12:24:58;11.03;;;6.17;;
18048;SDS011;9149;47.002;8.604;2023-12-20T12:27:28;9.53;;;5.80;;
18048;SDS011;9149;47.002;8.604;2023-12-20T12:30:03;12.70;;;6.10;;
18048;SDS011;9149;47.002;8.604;2023-12-20T12:32:31;14.53;;;6.23;;
18048;SDS011;9149;47.002;8.604;2023-12-20T12:34:59;6.60;;;3.60;;
18048;SDS011;9149;47.002;8.604;2023-12-20T12:37:28;12.70;;;4.50;;
18048;SDS011;9149;47.002;8.604;2023-12-20T12:39:55;5.37;;;3.27;;
18048;SDS011;9149;47.002;8.604;2023-12-20T12:42:24;7.03;;;3.60;;
18048;SDS011;9149;47.002;8.604;2023-12-20T12:44:56;5.77;;;3.30;;
18048;SDS011;9149;47.002;8.604;2023-12-20T12:47:23;4.27;;;2.40;;
18048;SDS011;9149;47.002;8.604;2023-12-20T12:49:52;2.87;;;2.13;;
18048;SDS011;9149;47.002;8.604;2023-12-20T12:52:20;4.00;;;2.27;;
18048;SDS011;9149;47.002;8.604;2023-12-20T12:54:48;3.83;;;2.40;;
18048;SDS011;9149;47.002;8.604;2023-12-20T12:57:16;3.10;;;2.27;;
18048;SDS011;9149;47.002;8.604;2023-12-20T12:59:44;2.93;;;1.90;;
18048;SDS011;9149;47.002;8.604;2023-12-20T13:02:14;3.27;;;2.23;;
18048;SDS011;9149;47.002;8.604;2023-12-20T13:04:42;2.43;;;2.03;;
18048;SDS011;9149;47.002;8.604;2023-12-20T13:07:10;4.63;;;2.30;;
18048;SDS011;9149;47.002;8.604;2023-12-20T13:09:38;4.07;;;2.33;;
18048;SDS011;9149;47.002;8.604;2023-12-20T13:12:06;6.70;;;2.73;;
18048;SDS011;9149;47.002;8.604;2023-12-20T13:14:34;2.33;;;1.90;;
18048;SDS011;9149;47.002;8.604;2023-12-20T13:17:03;3.27;;;2.10;;
18048;SDS011;9149;47.002;8.604;2023-12-20T13:19:32;3.80;;;2.10;;
18048;SDS011;9149;47.002;8.604;2023-12-20T13:22:00;8.00;;;2.23;;
18048;SDS011;9149;47.002;8.604;2023-12-20T13:24:28;5.77;;;3.40;;
18048;SDS011;9149;47.002;8.604;2023-12-20T13:26:56;9.10;;;4.07;;
18048;SDS011;9149;47.002;8.604;2023-12-20T13:29:24;8.33;;;3.93;;
18048;SDS011;9149;47.002;8.604;2023-12-20T13:31:53;5.67;;;3.73;;
18048;SDS011;9149;47.002;8.604;2023-12-20T13:34:21;7.60;;;3.27;;
18048;SDS011;9149;47.002;8.604;2023-12-20T13:36:50;12.17;;;3.00;;
18048;SDS011;9149;47.002;8.604;2023-12-20T13:39:18;5.03;;;2.97;;
18048;SDS011;9149;47.002;8.604;2023-12-20T13:41:45;5.73;;;3.30;;
18048;SDS011;9149;47.002;8.604;2023-12-20T13:44:13;5.93;;;3.40;;
18048;SDS011;9149;47.002;8.604;2023-12-20T13:46:41;6.63;;;3.70;;
18048;SDS011;9149;47.002;8.604;2023-12-20T13:49:09;5.67;;;2.70;;
18048;SDS011;9149;47.002;8.604;2023-12-20T13:51:37;4.10;;;2.77;;
18048;SDS011;9149;47.002;8.604;2023-12-20T13:54:06;5.47;;;3.40;;
18048;SDS011;9149;47.002;8.604;2023-12-20T13:56:34;5.07;;;3.33;;
18048;SDS011;9149;47.002;8.604;2023-12-20T13:59:09;3.73;;;2.53;;
18048;SDS011;9149;47.002;8.604;2023-12-20T14:01:37;2.33;;;2.00;;
18048;SDS011;9149;47.002;8.604;2023-12-20T14:04:05;4.37;;;2.37;;
18048;SDS011;9149;47.002;8.604;2023-12-20T14:06:33;3.77;;;2.30;;
18048;SDS011;9149;47.002;8.604;2023-12-20T14:09:01;4.97;;;2.30;;
18048;SDS011;9149;47.002;8.604;2023-12-20T14:11:30;3.30;;;2.30;;
18048;SDS011;9149;47.002;8.604;2023-12-20T14:13:58;2.97;;;2.20;;
18048;SDS011;9149;47.002;8.604;2023-12-20T14:16:28;2.60;;;1.90;;
18048;SDS011;9149;47.002;8.604;2023-12-20T14:18:55;2.30;;;1.70;;
18048;SDS011;9149;47.002;8.604;2023-12-20T14:21:24;2.53;;;1.80;;
18048;SDS011;9149;47.002;8.604;2023-12-20T14:23:52;1.80;;;1.60;;
18048;SDS011;9149;47.002;8.604;2023-12-20T14:26:20;1.93;;;1.73;;
18048;SDS011;9149;47.002;8.604;2023-12-20T14:28:49;2.77;;;1.97;;
18048;SDS011;9149;47.002;8.604;2023-12-20T14:31:16;3.80;;;2.07;;
18048;SDS011;9149;47.002;8.604;2023-12-20T14:33:44;2.83;;;1.90;;
18048;SDS011;9149;47.002;8.604;2023-12-20T14:36:12;2.80;;;1.80;;
18048;SDS011;9149;47.002;8.604;2023-12-20T14:38:39;1.83;;;1.63;;
18048;SDS011;9149;47.002;8.604;2023-12-20T14:41:07;3.17;;;1.93;;
18048;SDS011;9149;47.002;8.604;2023-12-20T14:43:35;2.53;;;1.87;;
18048;SDS011;9149;47.002;8.604;2023-12-20T14:46:04;2.73;;;2.00;;
18048;SDS011;9149;47.002;8.604;2023-12-20T14:48:32;2.40;;;1.63;;
18048;SDS011;9149;47.002;8.604;2023-12-20T14:51:00;4.27;;;1.70;;
18048;SDS011;9149;47.002;8.604;2023-12-20T14:53:28;2.27;;;1.83;;
18048;SDS011;9149;47.002;8.604;2023-12-20T14:55:55;2.60;;;1.60;;
18048;SDS011;9149;47.002;8.604;2023-12-20T14:58:23;2.37;;;1.70;;
18048;SDS011;9149;47.002;8.604;2023-12-20T15:00:51;1.97;;;1.63;;
18048;SDS011;9149;47.002;8.604;2023-12-20T15:03:20;2.40;;;1.87;;